Time;durP1;ratioP1;P1;durP2;ratioP2;P2;SDS_P1;SDS_P2;PMS_P1;PMS_P2;Temp;Humidity;BMP_temperature;BMP_pressure;BME280_temperature;BME280_humidity;BME280_pressure;Samples;Min_cycle;Max_cycle;Signal;HPM_P1;HPM_P2
2023/10/22 00:00:39;;;;;;;3.75;1.08;;;13.10;1.00;;;;;;5035924;28;20026;-73
2023/10/22 00:03:05;;;;;;;7.60;1.55;;;13.30;1.00;;;;;;5035782;28;20022;-72
2023/10/22 00:05:30;;;;;;;2.53;0.90;;;13.30;1.00;;;;;;5035950;28;20044;-75
2023/10/22 00:07:56;;;;;;;9.15;1.30;;;13.40;1.00;;;;;;5036320;28;20030;-73
2023/10/22 00:10:21;;;;;;;4.47;1.27;;;13.50;1.00;;;;;;5036221;28;20040;-73
2023/10/22 00:12:47;;;;;;;5.85;1.58;;;13.50;1.00;;;;;;5035983;28;20095;-73
2023/10/22 00:15:14;;;;;;;4.28;1.38;;;13.60;1.00;;;;;;5035953;28;20466;-73
2023/10/22 00:17:41;;;;;;;2.13;1.00;;;13.60;1.00;;;;;;5036073;28;20459;-73
2023/10/22 00:20:07;;;;;;;5.65;1.20;;;13.60;1.00;;;;;;5035733;28;20029;-73
2023/10/22 00:22:33;;;;;;;5.20;1.30;;;13.60;1.00;;;;;;5035625;28;20391;-73
2023/10/22 00:24:59;;;;;;;4.53;1.45;;;13.60;1.00;;;;;;5035579;28;20030;-73
2023/10/22 00:27:24;;;;;;;6.38;1.10;;;13.60;1.00;;;;;;5035534;28;20049;-72
2023/10/22 00:29:50;;;;;;;7.47;1.60;;;13.70;1.00;;;;;;5035403;28;20115;-73
2023/10/22 00:32:15;;;;;;;5.30;1.10;;;13.60;1.00;;;;;;5035630;28;20414;-73
2023/10/22 00:34:43;;;;;;;5.32;1.02;;;13.60;1.00;;;;;;5035832;28;20073;-73
2023/10/22 00:37:09;;;;;;;3.28;1.05;;;13.60;1.00;;;;;;5035879;28;20032;-72
2023/10/22 00:39:35;;;;;;;5.80;1.45;;;13.70;1.00;;;;;;5034970;28;20045;-73
2023/10/22 00:42:01;;;;;;;5.13;1.20;;;13.70;1.00;;;;;;5035615;28;20349;-73
2023/10/22 00:44:27;;;;;;;5.70;1.15;;;13.80;1.00;;;;;;5035239;28;20484;-73
2023/10/22 00:46:53;;;;;;;4.78;1.30;;;13.70;1.00;;;;;;5035420;28;20033;-73
2023/10/22 00:49:19;;;;;;;6.93;1.60;;;13.70;1.00;;;;;;5035372;28;20376;-73
2023/10/22 00:51:46;;;;;;;8.55;1.35;;;13.80;1.00;;;;;;5035364;28;20083;-72
2023/10/22 00:54:14;;;;;;;4.55;1.20;;;14.00;99.90;;;;;;5035414;28;20038;-73
2023/10/22 00:56:41;;;;;;;5.60;1.20;;;14.00;99.90;;;;;;5034925;28;20033;-73
2023/10/22 00:59:07;;;;;;;6.72;1.30;;;14.00;1.00;;;;;;5034950;28;20128;-73
2023/10/22 01:01:32;;;;;;;4.15;1.20;;;14.10;99.90;;;;;;5035000;28;20116;-72
2023/10/22 01:03:58;;;;;;;6.68;1.67;;;14.10;99.90;;;;;;5034616;28;20021;-73
2023/10/22 01:06:24;;;;;;;3.78;1.20;;;14.10;99.90;;;;;;5034590;28;20048;-73
2023/10/22 01:08:50;;;;;;;3.50;1.13;;;14.10;99.90;;;;;;5034816;28;20108;-72
2023/10/22 01:11:15;;;;;;;7.00;1.38;;;14.30;99.90;;;;;;5034773;28;20443;-72
2023/10/22 01:13:41;;;;;;;4.78;1.40;;;14.20;99.90;;;;;;5035168;28;20040;-73
2023/10/22 01:16:08;;;;;;;3.58;1.25;;;14.30;99.90;;;;;;5034952;28;20025;-73
2023/10/22 01:18:34;;;;;;;4.72;1.73;;;14.20;99.90;;;;;;5034996;28;20030;-73
2023/10/22 01:20:59;;;;;;;3.08;0.93;;;14.20;99.90;;;;;;5034337;28;20056;-72
2023/10/22 01:23:25;;;;;;;4.35;1.38;;;14.30;99.90;;;;;;5035061;28;20025;-73
2023/10/22 01:25:51;;;;;;;8.27;1.13;;;14.30;99.90;;;;;;5034947;28;20064;-73
2023/10/22 01:28:17;;;;;;;3.55;1.27;;;14.20;99.90;;;;;;5034687;28;20056;-72
2023/10/22 01:30:43;;;;;;;6.00;1.40;;;14.20;99.90;;;;;;5034143;28;20403;-73
2023/10/22 01:33:08;;;;;;;3.78;1.17;;;14.20;99.90;;;;;;5034116;28;20036;-73
2023/10/22 01:35:34;;;;;;;3.80;1.23;;;14.20;99.90;;;;;;5034234;28;20025;-74
2023/10/22 01:37:59;;;;;;;4.15;1.05;;;14.10;99.90;;;;;;5034457;28;20095;-73
2023/10/22 01:40:25;;;;;;;6.60;1.20;;;14.10;99.90;;;;;;5033765;28;20049;-73
2023/10/22 01:42:51;;;;;;;6.18;1.50;;;14.10;99.90;;;;;;5034257;28;20116;-73
2023/10/22 01:45:17;;;;;;;6.78;2.05;;;14.10;99.90;;;;;;5034320;28;20030;-73
2023/10/22 01:47:43;;;;;;;3.75;1.00;;;14.10;99.90;;;;;;5034234;28;20108;-73
2023/10/22 01:50:09;;;;;;;3.42;1.00;;;14.10;1.00;;;;;;5033950;28;20120;-73
2023/10/22 01:52:34;;;;;;;2.42;1.10;;;14.10;1.00;;;;;;5033601;28;20040;-73
2023/10/22 01:55:00;;;;;;;4.22;1.15;;;14.10;1.00;;;;;;5034528;28;20029;-72
2023/10/22 01:57:25;;;;;;;4.53;1.58;;;14.20;1.00;;;;;;5034039;28;20045;-72
2023/10/22 01:59:51;;;;;;;5.93;1.42;;;14.20;1.00;;;;;;5033997;28;20475;-73
2023/10/22 02:02:17;;;;;;;5.50;0.90;;;14.20;1.00;;;;;;5034135;28;20036;-73
2023/10/22 02:04:43;;;;;;;5.28;1.40;;;14.20;1.00;;;;;;5033992;28;20026;-73
2023/10/22 02:07:09;;;;;;;3.78;1.23;;;14.10;1.00;;;;;;5034302;28;20359;-73
2023/10/22 02:09:34;;;;;;;5.30;1.27;;;14.10;1.00;;;;;;5033734;28;20044;-73
2023/10/22 02:12:00;;;;;;;5.53;1.10;;;14.10;1.00;;;;;;5033878;28;20383;-73
2023/10/22 02:14:25;;;;;;;4.65;1.23;;;14.10;1.00;;;;;;5033406;28;20030;-73
2023/10/22 02:16:51;;;;;;;3.22;1.23;;;14.10;1.00;;;;;;5033990;28;20116;-73
2023/10/22 02:19:16;;;;;;;4.60;1.30;;;14.10;1.00;;;;;;5033591;28;20033;-73
2023/10/22 02:21:42;;;;;;;8.07;1.10;;;14.10;1.00;;;;;;5033756;28;20428;-73
2023/10/22 02:24:08;;;;;;;4.18;1.08;;;14.10;1.00;;;;;;5033669;28;20032;-72
2023/10/22 02:26:34;;;;;;;4.13;1.25;;;14.10;1.00;;;;;;5033654;28;20467;-72
2023/10/22 02:28:59;;;;;;;4.50;0.93;;;14.10;1.00;;;;;;5032727;28;20029;-73
2023/10/22 02:31:25;;;;;;;4.53;1.20;;;14.10;1.00;;;;;;5033230;28;20022;-73
2023/10/22 02:34:01;;;;;;;4.28;1.02;;;14.10;1.00;;;;;;5033794;28;20072;-72
2023/10/22 02:36:27;;;;;;;4.65;1.50;;;14.10;1.00;;;;;;5032963;28;20040;-73
2023/10/22 02:38:53;;;;;;;4.93;1.00;;;14.10;1.00;;;;;;5033056;28;20054;-73
2023/10/22 02:41:18;;;;;;;3.53;1.33;;;14.10;1.00;;;;;;5033434;28;20030;-72
2023/10/22 02:43:44;;;;;;;4.57;1.33;;;14.10;1.00;;;;;;5033799;28;20095;-73
2023/10/22 02:46:09;;;;;;;3.42;0.90;;;14.10;1.00;;;;;;5033365;28;20022;-72
2023/10/22 02:48:35;;;;;;;3.67;1.20;;;14.10;1.00;;;;;;5033531;28;20117;-73
2023/10/22 02:51:04;;;;;;;7.97;1.33;;;14.00;1.00;;;;;;5033147;28;20491;-73
2023/10/22 02:53:29;;;;;;;3.00;1.50;;;14.00;1.00;;;;;;5033393;28;20120;-74
2023/10/22 02:56:00;;;;;;;6.68;1.15;;;14.10;1.00;;;;;;5033152;28;20068;-73
2023/10/22 02:58:28;;;;;;;1.95;0.80;;;14.10;1.00;;;;;;5033496;28;20475;-73
2023/10/22 03:00:55;;;;;;;3.63;1.15;;;14.00;1.00;;;;;;5032818;28;20061;-73
2023/10/22 03:03:21;;;;;;;5.15;0.90;;;14.00;1.00;;;;;;5033547;28;20075;-73
2023/10/22 03:05:46;;;;;;;5.60;1.08;;;14.10;1.00;;;;;;5033162;28;20025;-73
2023/10/22 03:08:12;;;;;;;4.55;1.38;;;14.00;1.00;;;;;;5032898;28;20033;-72
2023/10/22 03:10:37;;;;;;;2.28;0.82;;;14.00;1.00;;;;;;5032957;28;20045;-73
2023/10/22 03:13:04;;;;;;;2.97;0.90;;;14.10;1.00;;;;;;5033221;28;20096;-73
2023/10/22 03:15:30;;;;;;;6.97;1.38;;;14.10;1.00;;;;;;5033049;28;20021;-73
2023/10/22 03:17:56;;;;;;;4.00;1.00;;;14.00;1.00;;;;;;5032962;28;20074;-73
2023/10/22 03:20:23;;;;;;;4.53;1.00;;;14.00;1.00;;;;;;5032652;28;20029;-73
2023/10/22 03:22:48;;;;;;;4.85;1.15;;;14.00;1.00;;;;;;5035501;28;20022;-73
2023/10/22 03:25:14;;;;;;;5.10;1.20;;;13.90;1.00;;;;;;5036750;28;20024;-73
2023/10/22 03:27:40;;;;;;;2.63;0.95;;;13.90;1.00;;;;;;5036902;28;20025;-73
2023/10/22 03:30:06;;;;;;;5.03;0.88;;;13.90;1.00;;;;;;5036804;28;20025;-72
2023/10/22 03:32:31;;;;;;;7.07;1.52;;;13.90;1.00;;;;;;5036699;28;20545;-72
2023/10/22 03:34:57;;;;;;;4.15;1.23;;;13.90;1.00;;;;;;5036788;28;20029;-72
2023/10/22 03:37:23;;;;;;;5.60;1.05;;;13.80;1.00;;;;;;5037045;28;20029;-73
2023/10/22 03:39:48;;;;;;;3.38;0.90;;;13.80;1.00;;;;;;5036016;28;20407;-73
2023/10/22 03:42:14;;;;;;;3.83;0.90;;;13.80;1.00;;;;;;5036502;28;20025;-72
2023/10/22 03:44:40;;;;;;;2.72;1.08;;;13.30;1.00;;;;;;5036594;28;20418;-73
2023/10/22 03:47:05;;;;;;;3.90;1.25;;;13.60;1.00;;;;;;5036306;28;20056;-73
2023/10/22 03:49:31;;;;;;;4.90;0.95;;;13.50;1.00;;;;;;5036452;28;20361;-72
2023/10/22 03:51:56;;;;;;;3.58;0.90;;;13.70;1.00;;;;;;5036329;28;20116;-72
2023/10/22 03:54:23;;;;;;;7.85;1.20;;;13.50;1.00;;;;;;5036667;28;20120;-72
2023/10/22 03:56:48;;;;;;;5.28;0.85;;;13.40;3.20;;;;;;5036370;28;20060;-72
2023/10/22 03:59:14;;;;;;;4.13;1.23;;;13.30;11.30;;;;;;5036296;28;20034;-73
2023/10/22 04:01:39;;;;;;;5.13;1.02;;;13.30;15.40;;;;;;5036287;28;20056;-71
2023/10/22 04:04:05;;;;;;;2.63;1.02;;;13.20;24.80;;;;;;5035863;28;20357;-72
2023/10/22 04:06:31;;;;;;;2.30;0.85;;;13.20;30.60;;;;;;5036416;28;20383;-72
2023/10/22 04:08:57;;;;;;;7.50;1.38;;;13.20;42.70;;;;;;5035857;28;20025;-72
2023/10/22 04:11:22;;;;;;;3.97;1.10;;;13.10;56.00;;;;;;5036326;28;20040;-73
2023/10/22 04:13:48;;;;;;;5.95;1.08;;;13.00;68.40;;;;;;5036127;28;20370;-72
2023/10/22 04:16:15;;;;;;;6.45;1.10;;;13.00;69.70;;;;;;5036139;28;20179;-73
2023/10/22 04:18:41;;;;;;;4.25;1.33;;;12.90;76.60;;;;;;5035816;28;20029;-73
2023/10/22 04:21:15;;;;;;;3.45;0.88;;;12.90;69.80;;;;;;5035243;28;20017;-72
2023/10/22 04:23:41;;;;;;;5.95;1.02;;;12.90;55.60;;;;;;5035908;28;20475;-72
2023/10/22 04:26:12;;;;;;;2.42;1.10;;;12.80;76.50;;;;;;5036074;28;20026;-72
2023/10/22 04:28:39;;;;;;;2.90;1.35;;;12.80;77.20;;;;;;5035366;28;20021;-72
2023/10/22 04:31:05;;;;;;;4.68;0.90;;;12.80;89.10;;;;;;5035298;28;20037;-71
2023/10/22 04:33:31;;;;;;;5.80;1.02;;;12.80;91.10;;;;;;5035342;28;20030;-72
2023/10/22 04:35:57;;;;;;;3.33;1.13;;;12.80;91.60;;;;;;5035641;28;20083;-72
2023/10/22 04:38:22;;;;;;;6.88;0.98;;;12.70;96.10;;;;;;5035880;28;20112;-73
2023/10/22 04:40:48;;;;;;;3.28;1.08;;;12.70;98.30;;;;;;5034396;28;20042;-73
2023/10/22 04:43:13;;;;;;;7.60;1.58;;;12.70;99.90;;;;;;5035759;28;20034;-72
2023/10/22 04:45:46;;;;;;;5.35;1.00;;;12.70;99.90;;;;;;5035082;28;20151;-72
2023/10/22 04:48:11;;;;;;;6.00;1.42;;;12.60;99.90;;;;;;5034686;28;20041;-73
2023/10/22 04:50:38;;;;;;;4.43;1.08;;;12.60;99.90;;;;;;5035354;28;20038;-72
2023/10/22 04:53:03;;;;;;;7.32;1.33;;;12.60;99.90;;;;;;5034953;28;20044;-72
2023/10/22 04:55:29;;;;;;;5.15;0.95;;;12.50;99.90;;;;;;5035303;28;20141;-73
2023/10/22 04:57:55;;;;;;;2.92;1.20;;;12.40;99.90;;;;;;5035429;28;20030;-72
2023/10/22 05:00:21;;;;;;;7.53;1.65;;;12.30;99.90;;;;;;5035206;28;20124;-72
2023/10/22 05:02:46;;;;;;;5.55;1.52;;;12.40;99.90;;;;;;5035003;28;20064;-72
2023/10/22 05:05:12;;;;;;;5.22;1.15;;;12.20;99.90;;;;;;5035460;28;20421;-72
2023/10/22 05:07:38;;;;;;;5.13;1.20;;;12.20;99.90;;;;;;5035351;28;20025;-73
2023/10/22 05:10:04;;;;;;;4.88;1.40;;;12.20;99.90;;;;;;5034807;28;20033;-72
2023/10/22 05:12:30;;;;;;;5.53;0.90;;;12.20;99.90;;;;;;5034674;28;20038;-72
2023/10/22 05:14:55;;;;;;;5.20;1.10;;;12.20;99.90;;;;;;5034936;28;20387;-72
2023/10/22 05:17:21;;;;;;;3.75;1.00;;;12.20;99.90;;;;;;5034973;28;20427;-72
2023/10/22 05:19:48;;;;;;;5.82;1.33;;;12.20;99.90;;;;;;5034776;28;20382;-73
2023/10/22 05:22:14;;;;;;;7.45;1.23;;;12.40;99.90;;;;;;5034777;28;20025;-73
2023/10/22 05:24:39;;;;;;;3.35;0.98;;;12.20;99.90;;;;;;5034855;28;20380;-73
2023/10/22 05:27:05;;;;;;;3.97;0.90;;;12.30;99.90;;;;;;5034744;28;20071;-73
2023/10/22 05:29:31;;;;;;;4.07;1.10;;;12.30;99.90;;;;;;5034739;28;20029;-72
2023/10/22 05:31:57;;;;;;;3.17;0.98;;;12.40;99.90;;;;;;5034249;28;20033;-72
2023/10/22 05:34:22;;;;;;;3.38;0.80;;;12.30;99.90;;;;;;5034563;28;20025;-72
2023/10/22 05:36:48;;;;;;;5.93;1.10;;;12.30;99.90;;;;;;5034340;28;20033;-72
2023/10/22 05:39:13;;;;;;;2.90;1.20;;;12.30;99.90;;;;;;5033746;28;20073;-72
2023/10/22 05:41:39;;;;;;;3.53;0.85;;;12.30;99.90;;;;;;5033819;28;20033;-72
2023/10/22 05:44:05;;;;;;;4.43;1.13;;;12.30;99.90;;;;;;5033983;28;20095;-72
2023/10/22 05:46:32;;;;;;;6.50;1.48;;;12.30;99.90;;;;;;5033889;28;20029;-72
2023/10/22 05:48:58;;;;;;;5.90;1.10;;;12.30;99.90;;;;;;5034583;28;20033;-72
2023/10/22 05:51:24;;;;;;;5.97;1.38;;;12.20;99.90;;;;;;5034257;28;20447;-72
2023/10/22 05:53:50;;;;;;;4.85;1.08;;;12.40;99.90;;;;;;5034475;28;20394;-71
2023/10/22 05:56:16;;;;;;;2.78;1.10;;;12.30;99.90;;;;;;5034489;28;20452;-72
2023/10/22 05:58:41;;;;;;;6.50;1.73;;;12.30;99.90;;;;;;5034177;28;20332;-72
2023/10/22 06:01:08;;;;;;;4.07;0.90;;;12.40;99.90;;;;;;5033334;28;20546;-71
2023/10/22 06:03:34;;;;;;;4.40;1.15;;;12.20;99.90;;;;;;5034275;28;20033;-72
2023/10/22 06:06:00;;;;;;;2.35;0.95;;;12.30;99.90;;;;;;5034363;28;20363;-72
2023/10/22 06:08:26;;;;;;;3.33;0.90;;;12.20;99.90;;;;;;5033655;28;20113;-72
2023/10/22 06:10:52;;;;;;;4.15;1.05;;;12.30;99.90;;;;;;5033735;28;20423;-72
2023/10/22 06:13:17;;;;;;;6.97;1.20;;;12.40;99.90;;;;;;5034077;28;20112;-72
2023/10/22 06:15:44;;;;;;;6.20;1.27;;;12.30;99.90;;;;;;5034126;28;20037;-72
2023/10/22 06:18:10;;;;;;;3.85;1.17;;;12.30;99.90;;;;;;5034062;28;20365;-72
2023/10/22 06:20:37;;;;;;;2.05;0.90;;;12.40;99.90;;;;;;5034222;28;20049;-72
2023/10/22 06:23:04;;;;;;;4.88;1.10;;;12.40;99.90;;;;;;5034115;28;20029;-72
2023/10/22 06:25:31;;;;;;;4.57;1.25;;;12.40;99.90;;;;;;5034301;28;20581;-72
2023/10/22 06:27:58;;;;;;;3.35;1.10;;;12.40;99.90;;;;;;5034365;28;20095;-73
2023/10/22 06:30:25;;;;;;;2.35;0.90;;;12.40;99.90;;;;;;5034380;28;20487;-72
2023/10/22 06:32:52;;;;;;;3.45;1.05;;;12.40;99.90;;;;;;5033972;28;20040;-71
2023/10/22 06:35:19;;;;;;;3.80;1.17;;;12.40;99.90;;;;;;5034338;28;20035;-72
2023/10/22 06:37:47;;;;;;;8.07;1.10;;;12.40;99.90;;;;;;5033739;28;20075;-72
2023/10/22 06:40:13;;;;;;;6.55;1.13;;;12.40;99.90;;;;;;5033327;28;20420;-72
2023/10/22 06:42:40;;;;;;;3.67;0.85;;;12.40;99.90;;;;;;5034006;28;20025;-72
2023/10/22 06:45:07;;;;;;;2.90;1.00;;;12.50;99.90;;;;;;5034106;28;20112;-72
2023/10/22 06:47:36;;;;;;;2.20;1.10;;;12.40;99.90;;;;;;5033582;28;20542;-72
2023/10/22 06:50:05;;;;;;;3.75;0.85;;;12.50;99.90;;;;;;5033912;28;20079;-72
2023/10/22 06:52:31;;;;;;;5.78;1.25;;;12.50;99.90;;;;;;5033309;28;20025;-73
2023/10/22 06:54:57;;;;;;;1.95;0.75;;;12.60;99.90;;;;;;5033908;28;20037;-73
2023/10/22 06:57:22;;;;;;;2.28;0.85;;;12.50;99.90;;;;;;5036850;28;20030;-72
2023/10/22 06:59:48;;;;;;;0.98;0.70;;;12.60;99.90;;;;;;5037423;28;20051;-73
2023/10/22 07:02:15;;;;;;;3.67;0.88;;;12.60;99.90;;;;;;5036693;28;20049;-72
2023/10/22 07:04:41;;;;;;;1.00;0.60;;;12.60;99.90;;;;;;5037530;28;20026;-72
2023/10/22 07:07:08;;;;;;;1.52;0.63;;;12.60;99.90;;;;;;5037352;28;20029;-73
2023/10/22 07:09:33;;;;;;;1.65;0.80;;;12.60;99.90;;;;;;5037362;28;20498;-72
2023/10/22 07:11:58;;;;;;;1.08;0.60;;;12.60;99.90;;;;;;5037039;28;20021;-72
2023/10/22 07:14:25;;;;;;;3.20;1.08;;;12.50;99.90;;;;;;5037235;28;20040;-72
2023/10/22 07:16:51;;;;;;;1.15;0.80;;;12.50;99.90;;;;;;5036270;28;20021;-72
2023/10/22 07:19:16;;;;;;;1.45;0.80;;;12.60;99.90;;;;;;5036887;28;20025;-72
2023/10/22 07:21:42;;;;;;;2.92;0.90;;;12.50;99.90;;;;;;5036802;28;20038;-72
2023/10/22 07:24:08;;;;;;;0.95;0.65;;;12.60;99.90;;;;;;5036937;28;20021;-72
2023/10/22 07:26:33;;;;;;;2.13;0.73;;;12.70;99.90;;;;;;5036925;28;20040;-72
2023/10/22 07:28:59;;;;;;;1.10;0.88;;;12.70;99.90;;;;;;5037047;28;20028;-72
2023/10/22 07:31:24;;;;;;;1.80;0.70;;;12.70;99.90;;;;;;5036310;28;20083;-72
2023/10/22 07:33:51;;;;;;;2.42;0.68;;;12.70;98.70;;;;;;5036946;28;20033;-72
2023/10/22 07:36:17;;;;;;;2.35;0.68;;;12.70;92.10;;;;;;5036837;28;20481;-72
2023/10/22 07:38:42;;;;;;;1.27;0.60;;;12.80;61.30;;;;;;5036013;28;20065;-72
2023/10/22 07:41:15;;;;;;;0.65;0.50;;;12.80;52.80;;;;;;5036786;28;20034;-72
2023/10/22 07:43:40;;;;;;;2.83;0.57;;;13.00;45.30;;;;;;5036958;28;20031;-72
2023/10/22 07:46:07;;;;;;;0.75;0.70;;;13.00;31.50;;;;;;5035764;28;20025;-72
2023/10/22 07:48:33;;;;;;;0.75;0.60;;;13.10;20.70;;;;;;5036377;28;20028;-72
2023/10/22 07:51:15;;;;;;;1.52;0.55;;;13.10;3.90;;;;;;5036503;28;20025;-72
2023/10/22 07:53:42;;;;;;;0.55;0.50;;;13.20;1.00;;;;;;5036819;28;20032;-72
2023/10/22 07:56:09;;;;;;;2.55;0.47;;;13.20;1.00;;;;;;5035854;28;20120;-72
2023/10/22 07:58:35;;;;;;;1.75;0.55;;;13.20;1.00;;;;;;5036465;28;20033;-72
2023/10/22 08:01:01;;;;;;;1.27;0.50;;;13.20;1.00;;;;;;5036151;28;20025;-73
2023/10/22 08:03:29;;;;;;;0.98;0.45;;;13.30;1.00;;;;;;5035636;28;20080;-72
2023/10/22 08:05:55;;;;;;;0.52;0.52;;;13.30;1.00;;;;;;5036010;28;20057;-72
2023/10/22 08:08:20;;;;;;;2.35;0.60;;;13.30;1.00;;;;;;5035749;28;20052;-72
2023/10/22 08:10:46;;;;;;;0.73;0.60;;;13.30;1.00;;;;;;5035912;28;20033;-72
2023/10/22 08:13:11;;;;;;;1.10;0.63;;;13.30;1.00;;;;;;5035741;28;20029;-72
2023/10/22 08:15:37;;;;;;;0.98;0.43;;;13.20;1.00;;;;;;5036341;28;20033;-72
2023/10/22 08:18:03;;;;;;;1.77;0.80;;;13.30;1.00;;;;;;5036223;28;20026;-72
2023/10/22 08:20:31;;;;;;;1.35;0.60;;;13.30;1.00;;;;;;5036061;28;20379;-72
2023/10/22 08:22:57;;;;;;;0.90;0.50;;;13.40;1.00;;;;;;5035037;28;20083;-72
2023/10/22 08:25:22;;;;;;;1.40;0.50;;;13.50;1.00;;;;;;5035101;28;20112;-72
2023/10/22 08:27:48;;;;;;;1.30;0.60;;;13.60;1.00;;;;;;5036055;28;20080;-72
2023/10/22 08:30:13;;;;;;;0.95;0.60;;;13.50;1.00;;;;;;5035786;28;20037;-72
2023/10/22 08:32:45;;;;;;;2.67;0.70;;;13.60;1.00;;;;;;5035597;28;20029;-72
2023/10/22 08:35:11;;;;;;;1.27;0.85;;;13.80;1.00;;;;;;5035773;28;20460;-72
2023/10/22 08:37:38;;;;;;;2.33;0.88;;;13.90;1.00;;;;;;5035666;28;20040;-72
2023/10/22 08:40:07;;;;;;;1.95;0.93;;;13.80;1.00;;;;;;5034477;28;20136;-72
2023/10/22 08:42:33;;;;;;;1.73;0.70;;;14.00;1.00;;;;;;5035356;28;20476;-72
2023/10/22 08:44:58;;;;;;;1.15;0.80;;;14.30;1.00;;;;;;5035546;28;20030;-72
2023/10/22 08:47:24;;;;;;;1.38;0.80;;;14.00;1.00;;;;;;5035832;28;20026;-73
2023/10/22 08:49:52;;;;;;;1.50;0.82;;;13.90;1.00;;;;;;5035495;28;20095;-72
2023/10/22 08:52:17;;;;;;;2.15;0.60;;;13.90;1.00;;;;;;5034855;28;20087;-72
2023/10/22 08:54:46;;;;;;;1.20;0.65;;;13.90;1.00;;;;;;5035271;28;20038;-72
2023/10/22 08:57:11;;;;;;;2.28;0.70;;;14.00;1.00;;;;;;5035138;28;20494;-72
2023/10/22 08:59:38;;;;;;;1.02;0.68;;;14.00;99.90;;;;;;5034705;28;20061;-72
2023/10/22 09:02:08;;;;;;;2.33;0.80;;;14.00;1.00;;;;;;5035241;28;20021;-72
2023/10/22 09:04:34;;;;;;;1.40;0.80;;;14.00;1.00;;;;;;5034940;28;20029;-72
2023/10/22 09:07:01;;;;;;;2.47;0.70;;;14.00;1.00;;;;;;5035248;28;20380;-72
2023/10/22 09:09:32;;;;;;;2.00;0.60;;;14.00;1.00;;;;;;5034670;28;20529;-72
2023/10/22 09:11:58;;;;;;;2.70;0.70;;;14.00;1.00;;;;;;5035499;28;20376;-72
2023/10/22 09:14:24;;;;;;;0.60;0.60;;;14.00;99.90;;;;;;5035032;28;20032;-72
2023/10/22 09:16:50;;;;;;;1.63;0.80;;;14.00;1.00;;;;;;5034675;28;20017;-72
2023/10/22 09:19:36;;;;;;;1.83;0.73;;;14.00;99.90;;;;;;5034233;28;20026;-72
2023/10/22 09:22:03;;;;;;;2.83;0.95;;;14.00;99.90;;;;;;5034955;28;20029;-72
2023/10/22 09:24:29;;;;;;;1.60;0.80;;;14.10;1.00;;;;;;5034643;28;20021;-73
2023/10/22 09:26:54;;;;;;;1.05;0.60;;;14.30;1.00;;;;;;5034476;28;20086;-72
2023/10/22 09:29:20;;;;;;;0.85;0.60;;;14.30;1.00;;;;;;5033858;28;20067;-72
2023/10/22 09:31:54;;;;;;;1.63;0.73;;;14.30;99.90;;;;;;5034775;28;20061;-72
2023/10/22 09:34:25;;;;;;;1.80;0.70;;;14.30;1.00;;;;;;5034181;28;20022;-72
2023/10/22 09:36:53;;;;;;;2.75;0.80;;;14.30;1.00;;;;;;5034151;28;20120;-73
2023/10/22 09:39:36;;;;;;;2.30;0.77;;;14.40;99.90;;;;;;5033844;28;20052;-72
2023/10/22 09:42:04;;;;;;;1.17;0.70;;;14.40;1.00;;;;;;5034729;28;20112;-72
2023/10/22 09:44:32;;;;;;;2.20;0.95;;;14.50;99.90;;;;;;5034301;28;20439;-73
2023/10/22 09:47:00;;;;;;;3.13;0.80;;;14.60;99.90;;;;;;5034250;28;20063;-72
2023/10/22 09:49:33;;;;;;;2.38;0.70;;;14.50;99.90;;;;;;5034335;28;20033;-72
2023/10/22 09:52:00;;;;;;;2.53;1.15;;;14.60;1.00;;;;;;5034313;28;20029;-73
2023/10/22 09:54:37;;;;;;;1.95;0.82;;;14.80;99.90;;;;;;5034230;28;20026;-73
2023/10/22 09:57:08;;;;;;;1.10;0.80;;;14.70;99.90;;;;;;5034234;28;20017;-72
2023/10/22 09:59:35;;;;;;;1.50;0.80;;;14.70;99.90;;;;;;5033955;28;20018;-72
2023/10/22 10:02:01;;;;;;;0.57;0.57;;;14.60;99.90;;;;;;5034214;28;20155;-71
2023/10/22 10:04:26;;;;;;;1.38;0.90;;;14.60;99.90;;;;;;5034280;28;20420;-72
2023/10/22 10:06:53;;;;;;;3.22;0.90;;;14.60;99.90;;;;;;5033834;28;20112;-73
2023/10/22 10:09:21;;;;;;;0.70;0.70;;;14.60;99.90;;;;;;5033919;28;20021;-72
2023/10/22 10:11:48;;;;;;;2.80;0.80;;;14.60;99.90;;;;;;5034148;28;20157;-72
2023/10/22 10:14:52;;;;;;;1.80;0.80;;;14.70;1.00;;;;;;5033697;28;20037;-72
2023/10/22 10:17:19;;;;;;;2.55;1.00;;;14.60;99.90;;;;;;5033603;28;20083;-73
2023/10/22 10:19:47;;;;;;;2.83;0.70;;;14.50;99.90;;;;;;5034003;28;20033;-72
2023/10/22 10:22:40;;;;;;;3.22;0.70;;;14.70;99.90;;;;;;5033605;28;20128;-72
2023/10/22 10:25:28;;;;;;;1.00;0.70;;;14.70;99.90;;;;;;5033225;28;20029;-72
2023/10/22 10:27:53;;;;;;;1.73;1.00;;;14.70;99.90;;;;;;5033164;28;20143;-72
2023/10/22 10:30:20;;;;;;;1.27;0.70;;;14.60;99.90;;;;;;5033313;28;20365;-72
2023/10/22 10:32:49;;;;;;;0.82;0.68;;;14.60;99.90;;;;;;5033626;28;20098;-72
2023/10/22 10:35:15;;;;;;;2.75;0.85;;;14.70;99.90;;;;;;5033572;28;20076;-72
2023/10/22 10:38:16;;;;;;;1.58;1.08;;;14.80;99.90;;;;;;5033780;28;20026;-72
2023/10/22 10:43:40;;;;;;;2.45;1.10;;;15.00;99.90;;;;;;5111557;27;20284;-72
2023/10/22 10:46:27;;;;;;;2.85;1.30;;;15.20;1.00;;;;;;5110919;28;20432;-73
2023/10/22 10:48:52;;;;;;;1.50;0.90;;;15.30;99.90;;;;;;5110765;28;20069;-72
2023/10/22 10:51:24;;;;;;;2.15;1.25;;;15.20;1.00;;;;;;5111016;28;20028;-73
2023/10/22 10:56:47;;;;;;;1.83;0.95;;;15.10;99.90;;;;;;5111607;27;20388;-72
2023/10/22 10:59:34;;;;;;;2.17;1.02;;;14.90;99.90;;;;;;5111027;28;20126;-72
2023/10/22 11:02:01;;;;;;;1.80;1.20;;;15.00;99.90;;;;;;5110258;28;20401;-72
2023/10/22 11:04:28;;;;;;;2.03;0.95;;;15.00;99.90;;;;;;5111520;28;20024;-73
2023/10/22 11:06:54;;;;;;;1.42;0.85;;;15.00;99.90;;;;;;5110919;28;20045;-73
2023/10/22 11:09:20;;;;;;;2.38;0.82;;;14.70;99.90;;;;;;5111489;28;20068;-72
2023/10/22 11:12:03;;;;;;;2.33;0.85;;;14.70;99.90;;;;;;5111043;28;20376;-72
2023/10/22 11:14:32;;;;;;;1.58;0.90;;;14.90;99.90;;;;;;5111125;28;20373;-73
2023/10/22 11:16:58;;;;;;;3.40;1.00;;;15.10;99.90;;;;;;5111097;28;20024;-72
2023/10/22 11:19:26;;;;;;;2.47;0.90;;;15.40;99.90;;;;;;5111300;28;20137;-73
2023/10/22 11:21:54;;;;;;;1.55;0.90;;;15.50;99.90;;;;;;5111011;28;20114;-73
2023/10/22 11:24:23;;;;;;;5.18;1.17;;;15.50;99.90;;;;;;5111006;28;20026;-73
2023/10/22 11:26:50;;;;;;;2.20;0.88;;;15.40;99.90;;;;;;5111007;28;20039;-73
2023/10/22 11:29:15;;;;;;;2.80;0.90;;;15.20;99.90;;;;;;5110267;28;20024;-72
2023/10/22 11:31:58;;;;;;;2.35;0.80;;;15.10;99.90;;;;;;5110665;28;20031;-73
2023/10/22 11:34:24;;;;;;;2.13;1.02;;;15.10;99.90;;;;;;5110711;28;20473;-72
2023/10/22 11:36:58;;;;;;;1.85;1.05;;;15.20;99.90;;;;;;5110919;28;20470;-72
2023/10/22 11:39:33;;;;;;;1.92;0.98;;;15.30;99.90;;;;;;5110170;28;20028;-73
2023/10/22 11:41:59;;;;;;;2.78;1.00;;;15.40;99.90;;;;;;5110836;28;20051;-73
2023/10/22 11:44:34;;;;;;;5.47;1.10;;;15.30;99.90;;;;;;5110743;28;20465;-72
2023/10/22 11:47:02;;;;;;;3.22;1.10;;;15.20;1.00;;;;;;5110729;28;20043;-72
2023/10/22 11:49:28;;;;;;;2.92;1.10;;;15.20;1.00;;;;;;5110769;28;20103;-73
2023/10/22 11:51:54;;;;;;;2.72;0.90;;;15.20;1.00;;;;;;5110351;28;20024;-73
2023/10/22 11:54:36;;;;;;;1.00;0.90;;;15.20;1.00;;;;;;5110411;28;20077;-72
2023/10/22 11:57:02;;;;;;;2.77;1.00;;;15.10;1.00;;;;;;5110295;28;20092;-73
2023/10/22 11:59:29;;;;;;;1.33;1.02;;;15.00;1.00;;;;;;5110414;28;20036;-73
2023/10/22 12:01:55;;;;;;;1.88;1.10;;;14.90;1.00;;;;;;5109768;28;20016;-73
2023/10/22 12:04:20;;;;;;;1.23;1.00;;;15.00;1.00;;;;;;5110387;28;20020;-78
2023/10/22 12:06:46;;;;;;;1.95;0.95;;;14.90;1.00;;;;;;5104081;28;20059;-73
2023/10/22 12:09:11;;;;;;;3.30;0.95;;;14.80;1.00;;;;;;5096090;28;20043;-73
2023/10/22 12:11:37;;;;;;;1.85;0.70;;;14.80;1.00;;;;;;5095641;28;20020;-73
2023/10/22 12:14:02;;;;;;;4.03;1.00;;;14.80;1.00;;;;;;5096457;28;20024;-73
2023/10/22 12:16:28;;;;;;;2.00;0.80;;;14.80;1.00;;;;;;5095983;28;20081;-73
2023/10/22 12:18:53;;;;;;;1.30;0.98;;;14.80;1.00;;;;;;5096125;28;20074;-73
2023/10/22 12:21:19;;;;;;;3.70;1.10;;;14.90;1.00;;;;;;5096512;28;20024;-73
2023/10/22 12:23:45;;;;;;;1.90;0.95;;;14.90;1.00;;;;;;5096627;28;20492;-74
2023/10/22 12:26:10;;;;;;;1.65;0.70;;;15.00;1.00;;;;;;5095828;28;20069;-73
2023/10/22 12:28:36;;;;;;;1.67;0.75;;;15.10;1.00;;;;;;5096107;28;20064;-73
2023/10/22 12:31:01;;;;;;;4.90;1.00;;;15.20;1.00;;;;;;5096318;28;20517;-73
2023/10/22 12:33:27;;;;;;;2.88;0.90;;;15.10;1.00;;;;;;5095573;28;20501;-73
2023/10/22 12:35:52;;;;;;;2.65;0.98;;;15.00;1.00;;;;;;5096036;28;20031;-73
2023/10/22 12:38:18;;;;;;;2.35;1.00;;;15.00;1.00;;;;;;5095934;28;20489;-73
2023/10/22 12:40:48;;;;;;;3.25;0.98;;;15.10;1.00;;;;;;5095857;28;20030;-73
2023/10/22 12:43:13;;;;;;;2.00;0.80;;;15.10;1.00;;;;;;5094936;28;20020;-73
2023/10/22 12:45:40;;;;;;;2.55;0.93;;;15.10;1.00;;;;;;5095989;28;20107;-72
2023/10/22 12:48:05;;;;;;;1.70;0.90;;;15.10;1.00;;;;;;5095950;28;20016;-74
2023/10/22 12:50:31;;;;;;;1.17;0.90;;;15.10;1.00;;;;;;5095662;28;20416;-73
2023/10/22 12:52:56;;;;;;;1.92;0.80;;;15.10;1.00;;;;;;5095785;28;20024;-72
2023/10/22 12:55:25;;;;;;;3.08;1.00;;;15.20;1.00;;;;;;5094986;28;20052;-73
2023/10/22 12:57:50;;;;;;;5.43;2.38;;;15.20;1.00;;;;;;5095583;28;20114;-73